createdAt,value
2018-05-01T00:00:25.911Z,13.10
2018-05-01T00:05:37.878Z,13.10
2018-05-01T00:08:07.975Z,13.10
2018-05-01T00:10:37.811Z,13.30
2018-05-01T00:13:08.669Z,13.30
2018-05-01T00:15:37.992Z,13.30
2018-05-01T00:18:07.293Z,13.50
2018-05-01T00:20:37.384Z,13.00
2018-05-01T00:23:08.271Z,12.80
2018-05-01T00:25:41.151Z,12.80
2018-05-01T00:28:10.818Z,12.90
2018-05-01T00:30:39.912Z,13.00
2018-05-01T00:33:09.199Z,13.10
2018-05-01T00:35:39.967Z,13.30
2018-05-01T00:38:09.697Z,13.20
2018-05-01T00:40:39.612Z,13.20
2018-05-01T00:43:09.384Z,13.20
2018-05-01T00:45:38.733Z,13.20
2018-05-01T00:48:07.869Z,13.00
2018-05-01T00:50:38.057Z,12.80
2018-05-01T00:53:07.625Z,13.00
2018-05-01T00:55:37.370Z,13.10
2018-05-01T00:58:07.152Z,13.00
2018-05-01T01:00:36.699Z,13.00
2018-05-01T01:03:07.091Z,13.10
2018-05-01T01:05:37.031Z,13.10
2018-05-01T01:08:07.143Z,13.10
2018-05-01T01:10:36.568Z,13.00
2018-05-01T01:13:06.474Z,13.00
2018-05-01T01:15:36.010Z,13.20
2018-05-01T01:18:05.920Z,13.30
2018-05-01T01:20:35.665Z,13.10
2018-05-01T01:23:04.972Z,13.10
2018-05-01T01:25:34.403Z,12.90
2018-05-01T01:28:04.306Z,12.80
2018-05-01T01:30:33.671Z,12.90
2018-05-01T01:33:03.328Z,13.00
2018-05-01T01:35:32.526Z,12.90
2018-05-01T01:38:01.514Z,12.80
2018-05-01T01:40:30.292Z,12.70
2018-05-01T01:42:59.164Z,12.60
2018-05-01T01:45:28.193Z,12.50
2018-05-01T01:47:56.750Z,12.50
2018-05-01T01:50:25.640Z,12.40
2018-05-01T01:52:54.367Z,12.40
2018-05-01T01:55:23.236Z,12.50
2018-05-01T01:57:52.103Z,12.50
2018-05-01T02:00:20.720Z,12.50
2018-05-01T02:02:49.487Z,12.40
2018-05-01T02:05:18.376Z,12.50
2018-05-01T02:07:47.189Z,12.50
2018-05-01T02:10:16.794Z,12.50
2018-05-01T02:12:45.994Z,12.40
2018-05-01T02:15:14.793Z,12.40
2018-05-01T02:17:44.595Z,12.50
2018-05-01T02:20:13.688Z,12.50
2018-05-01T02:22:42.574Z,12.50
2018-05-01T02:25:11.394Z,12.50
2018-05-01T02:27:40.566Z,12.50
2018-05-01T02:30:09.367Z,12.50
2018-05-01T02:32:38.340Z,12.50
2018-05-01T02:35:07.561Z,12.40
2018-05-01T02:37:36.337Z,12.20
2018-05-01T02:40:05.228Z,12.30
2018-05-01T02:42:34.527Z,12.30
2018-05-01T02:45:03.228Z,12.20
2018-05-01T02:47:32.012Z,12.20
2018-05-01T02:50:01.610Z,12.20
2018-05-01T02:52:30.401Z,12.20
2018-05-01T02:54:59.085Z,12.20
2018-05-01T02:57:27.803Z,12.20
2018-05-01T02:59:56.046Z,12.40
2018-05-01T03:02:24.847Z,12.40
2018-05-01T03:04:53.942Z,12.40
2018-05-01T03:07:22.630Z,12.50
2018-05-01T03:09:52.317Z,12.70
2018-05-01T03:12:21.048Z,12.70
2018-05-01T03:14:49.814Z,12.70
2018-05-01T03:17:19.206Z,12.50
2018-05-01T03:19:48.506Z,12.50
2018-05-01T03:22:16.992Z,12.50
2018-05-01T03:24:45.467Z,12.10
2018-05-01T03:27:14.666Z,12.30
2018-05-01T03:29:42.939Z,12.50
2018-05-01T03:32:11.745Z,12.50
2018-05-01T03:34:40.313Z,12.40
2018-05-01T03:37:08.789Z,12.30
2018-05-01T03:39:37.301Z,12.40
2018-05-01T03:42:06.089Z,12.20
2018-05-01T03:44:34.601Z,12.00
2018-05-01T03:47:03.848Z,12.00
2018-05-01T03:49:33.146Z,12.00
2018-05-01T03:52:01.848Z,11.90
2018-05-01T03:54:31.141Z,11.90
2018-05-01T03:57:00.435Z,11.90
2018-05-01T03:59:29.030Z,11.90
2018-05-01T04:01:57.806Z,11.90
2018-05-01T04:04:28.442Z,12.10
2018-05-01T04:06:57.845Z,12.10
2018-05-01T04:09:26.634Z,12.10
2018-05-01T04:11:55.442Z,12.00
2018-05-01T04:14:24.007Z,11.80
2018-05-01T04:16:52.525Z,11.80
2018-05-01T04:19:21.785Z,11.90
2018-05-01T04:21:50.583Z,11.90
2018-05-01T04:24:19.371Z,11.90
2018-05-01T04:26:48.083Z,11.60
2018-05-01T04:29:16.359Z,11.60
2018-05-01T04:31:45.052Z,11.70
2018-05-01T04:34:13.908Z,11.70
2018-05-01T04:36:42.821Z,11.90
2018-05-01T04:39:13.322Z,12.20
2018-05-01T04:41:43.234Z,12.20
2018-05-01T04:44:11.932Z,12.30
2018-05-01T04:46:40.897Z,12.30
2018-05-01T04:49:09.626Z,12.30
2018-05-01T04:51:38.301Z,12.40
2018-05-01T04:54:07.801Z,11.70
2018-05-01T04:56:37.465Z,11.90
2018-05-01T04:59:07.725Z,11.70
2018-05-01T05:01:36.616Z,11.70
2018-05-01T05:04:05.714Z,11.70
2018-05-01T05:06:34.398Z,11.50
2018-05-01T05:09:03.186Z,11.60
2018-05-01T05:11:32.179Z,11.90
2018-05-01T05:14:00.977Z,12.00
2018-05-01T05:16:29.361Z,11.90
2018-05-01T05:18:58.179Z,11.90
2018-05-01T05:21:26.926Z,11.50
2018-05-01T05:23:55.234Z,11.30
2018-05-01T05:26:23.976Z,11.30
2018-05-01T05:28:54.211Z,11.30
2018-05-01T05:31:23.837Z,11.00
2018-05-01T05:33:52.372Z,11.00
2018-05-01T05:36:20.925Z,11.40
2018-05-01T05:38:49.997Z,11.70
2018-05-01T05:41:18.870Z,12.10
2018-05-01T05:43:47.374Z,12.00
2018-05-01T05:46:17.994Z,12.70
2018-05-01T05:48:46.987Z,12.70
2018-05-01T05:51:15.490Z,12.80
2018-05-01T05:53:44.340Z,12.80
2018-05-01T05:56:13.035Z,12.50
2018-05-01T05:58:41.508Z,12.80
2018-05-01T06:01:10.537Z,12.20
2018-05-01T06:03:38.900Z,12.40
2018-05-01T06:06:07.384Z,13.00
2018-05-01T06:08:36.767Z,13.50
2018-05-01T06:11:05.024Z,14.00
2018-05-01T06:13:33.715Z,14.40
2018-05-01T06:16:02.942Z,13.90
2018-05-01T06:18:33.259Z,14.70
2018-05-01T06:21:02.059Z,14.70
2018-05-01T06:23:31.128Z,14.00
2018-05-01T06:25:59.931Z,13.60
2018-05-01T06:28:28.822Z,13.80
2018-05-01T06:30:57.725Z,13.50
2018-05-01T06:33:26.603Z,13.80
2018-05-01T06:35:55.401Z,14.50
2018-05-01T06:38:24.206Z,15.30
2018-05-01T06:40:53.071Z,16.60
2018-05-01T06:43:21.578Z,18.80
2018-05-01T06:45:50.947Z,21.10
2018-05-01T06:48:19.409Z,21.10
2018-05-01T06:50:47.756Z,17.90
2018-05-01T06:53:17.413Z,19.10
2018-05-01T06:55:45.925Z,19.00
2018-05-01T06:58:14.187Z,18.10
2018-05-01T07:00:42.863Z,18.50
2018-05-01T07:03:11.353Z,19.70
2018-05-01T07:05:39.616Z,17.50
2018-05-01T07:08:08.331Z,17.20
2018-05-01T07:10:36.587Z,17.30
2018-05-01T07:13:04.799Z,17.90
2018-05-01T07:15:33.663Z,17.50
2018-05-01T07:18:02.144Z,18.00
2018-05-01T07:20:30.404Z,19.10
2018-05-01T07:23:00.057Z,21.70
2018-05-01T07:25:29.374Z,22.10
2018-05-01T07:27:58.850Z,22.20
2018-05-01T07:30:27.441Z,22.20
2018-05-01T07:32:55.947Z,23.20
2018-05-01T07:35:25.094Z,22.00
2018-05-01T07:37:59.321Z,22.40
2018-05-01T07:40:28.341Z,22.40
2018-05-01T07:42:57.780Z,22.30
2018-05-01T07:45:31.235Z,21.30
2018-05-01T07:48:00.954Z,21.00
2018-05-01T07:50:31.411Z,20.20
2018-05-01T07:52:59.963Z,19.20
2018-05-01T07:55:29.241Z,18.70
2018-05-01T07:59:10.335Z,18.50
2018-05-01T08:01:42.740Z,18.90
2018-05-01T08:04:13.332Z,19.60
2018-05-01T08:06:43.225Z,19.60
2018-05-01T08:09:11.871Z,19.50
2018-05-01T08:11:40.995Z,18.70
2018-05-01T08:14:09.844Z,17.70
2018-05-01T08:16:39.525Z,16.70
2018-05-01T08:19:08.958Z,16.70
2018-05-01T08:21:37.335Z,16.80
2018-05-01T08:24:05.875Z,17.10
2018-05-01T08:26:34.228Z,17.30
2018-05-01T08:29:02.490Z,17.90
2018-05-01T08:31:31.249Z,18.20
2018-05-01T08:34:00.495Z,18.30
2018-05-01T08:36:29.736Z,18.80
2018-05-01T08:38:58.565Z,18.70
2018-05-01T08:41:27.009Z,18.70
2018-05-01T08:43:55.669Z,18.40
2018-05-01T08:46:23.950Z,19.00
2018-05-01T08:48:52.941Z,16.80
2018-05-01T08:51:21.528Z,16.80
2018-05-01T08:53:50.199Z,17.00
2018-05-01T08:56:19.061Z,18.10
2018-05-01T08:58:47.582Z,17.70
2018-05-01T09:01:16.103Z,17.70
2018-05-01T09:03:48.765Z,17.30
2018-05-01T09:06:18.325Z,17.50
2018-05-01T09:08:48.531Z,17.90
2018-05-01T09:11:18.376Z,17.50
2018-05-01T09:13:47.194Z,17.70
2018-05-01T09:16:15.712Z,18.50
2018-05-01T09:18:44.185Z,19.60
2018-05-01T09:21:13.460Z,18.60
2018-05-01T09:23:42.159Z,18.60
2018-05-01T09:26:10.379Z,17.90
2018-05-01T09:28:38.838Z,17.40
2018-05-01T09:31:08.162Z,17.30
2018-05-01T09:33:36.633Z,17.20
2018-05-01T09:36:06.586Z,16.70
2018-05-01T09:38:35.125Z,17.10
2018-05-01T09:41:03.660Z,17.00
2018-05-01T09:43:32.469Z,16.80
2018-05-01T09:46:00.818Z,17.10
2018-05-01T09:48:30.050Z,16.80
2018-05-01T09:50:58.903Z,16.80
2018-05-01T09:53:28.276Z,16.70
2018-05-01T09:56:00.865Z,17.00
2018-05-01T09:58:30.848Z,17.00
2018-05-01T10:01:00.972Z,16.80
2018-05-01T10:03:31.705Z,17.10
2018-05-01T10:06:02.138Z,17.70
2018-05-01T10:08:32.299Z,18.20
2018-05-01T10:11:01.668Z,18.20
2018-05-01T10:13:31.636Z,18.00
2018-05-01T10:16:01.073Z,17.80
2018-05-01T10:18:30.493Z,18.10
2018-05-01T10:20:59.882Z,17.10
2018-05-01T10:23:29.738Z,17.30
2018-05-01T10:25:59.671Z,17.90
2018-05-01T10:28:29.425Z,17.90
2018-05-01T10:30:58.830Z,18.60
2018-05-01T10:33:29.086Z,18.20
2018-05-01T10:35:58.714Z,18.20
2018-05-01T10:38:28.809Z,17.20
2018-05-01T10:40:58.908Z,16.40
2018-05-01T10:43:29.059Z,16.40
2018-05-01T10:45:59.173Z,16.70
2018-05-01T10:48:29.434Z,16.70
2018-05-01T10:50:59.459Z,16.80
2018-05-01T10:53:28.452Z,16.80
2018-05-01T10:56:01.525Z,17.20
2018-05-01T10:58:31.849Z,16.40
2018-05-01T11:01:02.992Z,16.20
2018-05-01T11:03:32.913Z,16.80
2018-05-01T11:06:02.517Z,17.60
2018-05-01T11:08:32.248Z,17.40
2018-05-01T11:11:02.059Z,16.80
2018-05-01T11:13:31.059Z,16.80
2018-05-01T11:16:00.700Z,16.50
2018-05-01T11:18:30.033Z,17.00
2018-05-01T11:20:59.465Z,17.00
2018-05-01T11:23:28.873Z,17.60
2018-05-01T11:25:57.930Z,17.20
2018-05-01T11:28:28.358Z,16.90
2018-05-01T11:30:57.432Z,16.80
2018-05-01T11:33:26.825Z,16.40
2018-05-01T11:37:21.229Z,16.60
2018-05-01T11:39:50.681Z,16.80
2018-05-01T11:42:20.080Z,16.50
2018-05-01T11:44:49.484Z,16.50
2018-05-01T11:47:19.097Z,16.70
2018-05-01T11:49:48.435Z,16.20
2018-05-01T11:52:17.543Z,16.50
2018-05-01T11:54:46.853Z,16.30
2018-05-01T11:57:15.895Z,16.70
2018-05-01T11:59:45.554Z,16.60
2018-05-01T12:02:14.608Z,17.20
2018-05-01T12:04:43.925Z,16.70
2018-05-01T12:07:14.084Z,16.60
2018-05-01T12:09:48.607Z,16.60
2018-05-01T12:12:19.222Z,16.90
2018-05-01T12:14:48.834Z,16.80
2018-05-01T12:17:18.951Z,16.90
2018-05-01T12:19:48.965Z,16.90
2018-05-01T12:22:18.004Z,16.80
2018-05-01T12:24:47.304Z,16.70
2018-05-01T12:27:16.627Z,16.30
2018-05-01T12:29:46.096Z,16.30
2018-05-01T12:32:17.996Z,16.40
2018-05-01T12:34:48.368Z,16.40
2018-05-01T12:37:17.821Z,16.70
2018-05-01T12:39:47.174Z,16.70
2018-05-01T12:42:16.790Z,17.10
2018-05-01T12:44:46.369Z,16.60
2018-05-01T12:47:15.720Z,16.20
2018-05-01T12:49:46.077Z,17.10
2018-05-01T12:52:15.423Z,17.10
2018-05-01T12:54:45.097Z,16.90
2018-05-01T12:57:15.581Z,17.20
2018-05-01T12:59:44.950Z,17.10
2018-05-01T13:02:13.999Z,17.10
2018-05-01T13:04:43.617Z,16.70
2018-05-01T13:07:13.002Z,16.60
2018-05-01T13:09:42.361Z,16.80
2018-05-01T13:12:11.687Z,16.60
2018-05-01T13:14:41.021Z,16.00
2018-05-01T13:17:11.181Z,16.70
2018-05-01T13:19:40.827Z,16.70
2018-05-01T13:22:11.312Z,16.90
2018-05-01T13:24:40.495Z,16.30
2018-05-01T13:27:09.884Z,16.30
2018-05-01T13:29:38.855Z,16.20
2018-05-01T13:32:08.193Z,16.10
2018-05-01T13:34:37.571Z,15.90
2018-05-01T13:37:06.934Z,15.90
2018-05-01T13:39:36.335Z,15.80
2018-05-01T13:42:06.030Z,15.90
2018-05-01T13:44:35.049Z,16.00
2018-05-01T13:47:05.137Z,16.20
2018-05-01T13:49:34.471Z,16.20
2018-05-01T13:52:03.877Z,16.30
2018-05-01T13:54:33.253Z,16.40
2018-05-01T13:57:02.634Z,16.70
2018-05-01T13:59:32.009Z,16.60
2018-05-01T14:02:01.360Z,16.20
2018-05-01T14:04:31.771Z,16.60
2018-05-01T14:07:01.247Z,16.50
2018-05-01T14:09:30.900Z,16.20
2018-05-01T14:12:00.563Z,16.10
2018-05-01T14:14:29.909Z,16.40
2018-05-01T14:16:58.955Z,16.20
2018-05-01T14:19:28.544Z,16.30
2018-05-01T14:21:57.929Z,16.70
2018-05-01T14:24:26.985Z,16.90
2018-05-01T14:26:56.292Z,16.60
2018-05-01T14:29:25.674Z,17.00
2018-05-01T14:31:55.849Z,16.40
2018-05-01T14:34:25.530Z,16.30
2018-05-01T14:36:54.978Z,16.40
2018-05-01T14:39:24.661Z,16.50
2018-05-01T14:41:54.441Z,16.40
2018-05-01T14:44:24.598Z,16.50
2018-05-01T14:46:53.953Z,16.50
2018-05-01T14:49:23.682Z,16.60
2018-05-01T14:51:54.027Z,16.30
2018-05-01T14:54:23.521Z,16.30
2018-05-01T14:56:53.271Z,16.00
2018-05-01T14:59:22.789Z,16.10
2018-05-01T15:01:52.394Z,16.40
2018-05-01T15:04:21.833Z,16.50
2018-05-01T15:06:52.623Z,16.20
2018-05-01T15:09:22.319Z,16.20
2018-05-01T15:11:51.697Z,16.20
2018-05-01T15:14:25.184Z,16.10
2018-05-01T15:16:55.137Z,16.00
2018-05-01T15:19:24.624Z,16.10
2018-05-01T15:21:53.976Z,16.30
2018-05-01T15:24:23.674Z,16.50
2018-05-01T15:26:53.197Z,16.60
2018-05-01T15:29:22.958Z,16.30
2018-05-01T15:31:52.351Z,16.00
2018-05-01T15:34:21.399Z,16.00
2018-05-01T15:36:50.451Z,16.20
2018-05-01T15:39:19.780Z,16.30
2018-05-01T15:41:49.458Z,15.90
2018-05-01T15:44:18.856Z,16.10
2018-05-01T15:46:48.214Z,16.30
2018-05-01T15:49:17.679Z,16.10
2018-05-01T15:51:48.090Z,16.10
2018-05-01T15:54:18.390Z,16.00
2018-05-01T15:56:48.549Z,15.90
2018-05-01T15:59:18.897Z,15.90
2018-05-01T16:01:48.586Z,15.90
2018-05-01T16:04:18.048Z,15.90
2018-05-01T16:06:49.785Z,15.90
2018-05-01T16:09:24.944Z,15.80
2018-05-01T16:11:57.060Z,16.00
2018-05-01T16:14:27.498Z,16.40
2018-05-01T16:16:56.989Z,16.10
2018-05-01T16:19:26.508Z,16.00
2018-05-01T16:21:56.107Z,16.10
2018-05-01T16:24:25.980Z,15.90
2018-05-01T16:26:56.403Z,15.90
2018-05-01T16:29:25.407Z,15.90
2018-05-01T16:31:54.753Z,15.90
2018-05-01T16:34:24.195Z,15.60
2018-05-01T16:36:53.505Z,15.40
2018-05-01T16:39:23.650Z,15.50
2018-05-01T16:41:53.195Z,15.50
2018-05-01T16:44:22.187Z,15.40
2018-05-01T16:46:51.163Z,15.50
2018-05-01T16:49:21.660Z,15.50
2018-05-01T16:51:51.205Z,15.50
2018-05-01T16:54:23.728Z,15.30
2018-05-01T16:56:55.291Z,15.30
2018-05-01T16:59:25.722Z,15.20
2018-05-01T17:01:55.469Z,15.20
2018-05-01T17:04:24.950Z,15.30
2018-05-01T17:06:54.019Z,15.20
2018-05-01T17:09:23.657Z,15.10
2018-05-01T17:11:52.679Z,15.00
2018-05-01T17:14:22.041Z,15.00
2018-05-01T17:16:51.099Z,14.90
2018-05-01T17:19:21.674Z,14.90
2018-05-01T17:21:57.021Z,14.90
2018-05-01T17:26:40.102Z,14.80
2018-05-01T17:29:11.081Z,15.00
2018-05-01T17:31:41.202Z,14.90
2018-05-01T17:34:11.407Z,15.00
2018-05-01T17:36:41.862Z,15.10
2018-05-01T17:39:11.976Z,15.20
2018-05-01T17:41:41.354Z,15.10
2018-05-01T17:44:10.727Z,15.00
2018-05-01T17:46:40.081Z,15.00
2018-05-01T17:49:11.386Z,14.90
2018-05-01T17:51:41.203Z,14.90
2018-05-01T17:54:10.829Z,14.90
2018-05-01T17:56:41.014Z,15.00
2018-05-01T17:59:10.393Z,14.90
2018-05-01T18:01:39.531Z,14.90
2018-05-01T18:04:08.916Z,15.00
2018-05-01T18:06:38.717Z,14.90
2018-05-01T18:09:08.093Z,14.90
2018-05-01T18:11:37.442Z,15.10
2018-05-01T18:14:07.132Z,14.90
2018-05-01T18:16:36.888Z,14.90
2018-05-01T18:19:05.960Z,15.10
2018-05-01T18:21:36.829Z,14.80
2018-05-01T18:24:07.284Z,14.70
2018-05-01T18:26:36.921Z,14.70
2018-05-01T18:29:07.200Z,14.80
2018-05-01T18:31:40.179Z,14.60
2018-05-01T18:34:11.640Z,14.60
2018-05-01T18:36:40.958Z,14.70
2018-05-01T18:39:10.215Z,14.80
2018-05-01T18:41:40.014Z,14.80
2018-05-01T18:44:11.364Z,14.90
2018-05-01T18:46:41.679Z,14.70
2018-05-01T18:49:12.390Z,14.60
2018-05-01T18:51:44.410Z,14.60
2018-05-01T18:54:13.915Z,14.60
2018-05-01T18:56:44.120Z,14.60
2018-05-01T18:59:14.569Z,14.50
2018-05-01T19:01:44.705Z,14.60
2018-05-01T19:04:14.177Z,14.60
2018-05-01T19:06:44.626Z,14.60
2018-05-01T19:09:14.424Z,14.40
2018-05-01T19:11:43.623Z,14.40
2018-05-01T19:14:13.859Z,14.40
2018-05-01T19:16:43.451Z,14.40
2018-05-01T19:19:12.829Z,14.40
2018-05-01T19:21:43.045Z,14.60
2018-05-01T19:24:12.525Z,14.60
2018-05-01T19:26:42.249Z,14.50
2018-05-01T19:29:11.307Z,14.60
2018-05-01T19:31:40.759Z,14.70
2018-05-01T19:34:10.398Z,14.60
2018-05-01T19:36:40.890Z,14.60
2018-05-01T19:39:09.959Z,14.60
2018-05-01T19:41:40.097Z,14.70
2018-05-01T19:44:09.482Z,14.70
2018-05-01T19:46:38.873Z,14.60
2018-05-01T19:49:08.203Z,14.40
2018-05-01T19:51:37.303Z,14.40
2018-05-01T19:54:06.673Z,14.20
2018-05-01T19:56:36.427Z,14.20
2018-05-01T19:59:06.713Z,14.40
2018-05-01T20:01:36.141Z,14.30
2018-05-01T20:04:05.874Z,14.40
2018-05-01T20:06:35.258Z,14.20
2018-05-01T20:09:04.500Z,14.10
2018-05-01T20:11:33.884Z,14.10
2018-05-01T20:14:03.060Z,14.10
2018-05-01T20:16:33.210Z,14.20
2018-05-01T20:19:02.725Z,14.10
2018-05-01T20:21:32.189Z,14.10
2018-05-01T20:24:01.873Z,14.10
2018-05-01T20:26:31.258Z,14.10
2018-05-01T20:29:01.432Z,14.30
2018-05-01T20:31:30.801Z,14.20
2018-05-01T20:34:00.184Z,14.10
2018-05-01T20:36:30.586Z,14.00
2018-05-01T20:39:01.397Z,14.00
2018-05-01T20:41:30.909Z,14.00
2018-05-01T20:44:00.286Z,14.00
2018-05-01T20:46:30.381Z,13.90
2018-05-01T20:49:01.085Z,13.90
2018-05-01T20:51:32.466Z,13.90
2018-05-01T20:54:02.519Z,13.90
2018-05-01T20:56:36.546Z,13.90
2018-05-01T20:59:08.896Z,14.00
2018-05-01T21:01:38.408Z,13.80
2018-05-01T21:04:09.238Z,14.00
2018-05-01T21:06:40.040Z,14.00
2018-05-01T21:09:11.233Z,13.90
2018-05-01T21:11:41.073Z,13.50
2018-05-01T21:14:10.425Z,13.30
2018-05-01T21:16:39.784Z,13.30
2018-05-01T21:19:09.606Z,13.30
2018-05-01T21:21:38.902Z,13.30
2018-05-01T21:24:07.965Z,13.40
2018-05-01T21:26:37.311Z,13.50
2018-05-01T21:29:06.969Z,13.40
2018-05-01T21:31:36.006Z,13.40
2018-05-01T21:34:05.090Z,13.50
2018-05-01T21:36:34.379Z,13.40
2018-05-01T22:22:45.760Z,13.30
2018-05-01T22:25:16.429Z,13.00
2018-05-01T22:27:48.073Z,12.90
2018-05-01T22:30:17.585Z,12.90
2018-05-01T22:32:47.652Z,12.90
2018-05-01T22:35:18.673Z,12.70
2018-05-01T22:37:47.892Z,12.80
2018-05-01T22:40:17.215Z,13.00
2018-05-01T22:42:47.369Z,12.70
2018-05-01T22:45:17.439Z,12.70
2018-05-01T22:47:46.424Z,12.60
2018-05-01T22:50:15.855Z,12.70
2018-05-01T22:52:45.366Z,13.10
2018-05-01T22:55:14.864Z,13.30
2018-05-01T22:57:44.723Z,13.30
2018-05-01T23:00:15.281Z,12.90
2018-05-01T23:02:45.042Z,12.90
2018-05-01T23:05:14.423Z,12.80
2018-05-01T23:07:44.620Z,13.00
2018-05-01T23:10:14.373Z,13.20
2018-05-01T23:12:43.631Z,13.10
2018-05-01T23:15:13.548Z,12.80
2018-05-01T23:17:43.680Z,12.80
2018-05-01T23:20:13.113Z,12.60
2018-05-01T23:22:42.736Z,12.70
2018-05-01T23:25:15.206Z,12.50
2018-05-01T23:27:44.960Z,12.40
2018-05-01T23:30:15.905Z,12.40
2018-05-01T23:32:45.813Z,12.40
2018-05-01T23:35:15.076Z,12.30
2018-05-01T23:37:45.847Z,12.40
2018-05-01T23:40:15.784Z,12.30
2018-05-01T23:42:45.484Z,12.30
2018-05-01T23:45:16.877Z,12.40
2018-05-01T23:47:46.531Z,12.40
2018-05-01T23:50:16.049Z,12.50
2018-05-01T23:52:47.190Z,12.40
2018-05-01T23:55:18.733Z,12.40
2018-05-01T23:57:48.385Z,12.40
